sensor_id;sensor_type;location;lat;lon;timestamp;P1;durP1;ratioP1;P2;durP2;ratioP2
21128;SDS011;10722;51.910;8.352;2022-08-04T00:03:06;15.65;;;4.05;;
21128;SDS011;10722;51.910;8.352;2022-08-04T00:08:58;13.45;;;3.60;;
21128;SDS011;10722;51.910;8.352;2022-08-04T00:11:50;17.15;;;3.75;;
21128;SDS011;10722;51.910;8.352;2022-08-04T00:14:49;17.73;;;3.88;;
21128;SDS011;10722;51.910;8.352;2022-08-04T00:17:39;15.68;;;3.95;;
21128;SDS011;10722;51.910;8.352;2022-08-04T00:20:31;13.20;;;3.75;;
21128;SDS011;10722;51.910;8.352;2022-08-04T00:23:17;15.57;;;3.38;;
21128;SDS011;10722;51.910;8.352;2022-08-04T00:26:02;15.25;;;3.70;;
21128;SDS011;10722;51.910;8.352;2022-08-04T00:28:48;15.13;;;3.78;;
21128;SDS011;10722;51.910;8.352;2022-08-04T00:31:34;13.23;;;3.13;;
21128;SDS011;10722;51.910;8.352;2022-08-04T00:34:40;11.52;;;3.17;;
21128;SDS011;10722;51.910;8.352;2022-08-04T00:37:26;13.80;;;3.53;;
21128;SDS011;10722;51.910;8.352;2022-08-04T00:43:15;19.02;;;3.78;;
21128;SDS011;10722;51.910;8.352;2022-08-04T00:55:35;14.80;;;3.40;;
21128;SDS011;10722;51.910;8.352;2022-08-04T00:58:41;13.52;;;3.47;;
21128;SDS011;10722;51.910;8.352;2022-08-04T01:04:54;13.02;;;3.25;;
21128;SDS011;10722;51.910;8.352;2022-08-04T01:07:56;12.13;;;3.13;;
21128;SDS011;10722;51.910;8.352;2022-08-04T01:17:27;15.95;;;3.20;;
21128;SDS011;10722;51.910;8.352;2022-08-04T01:20:20;13.45;;;3.60;;
21128;SDS011;10722;51.910;8.352;2022-08-04T01:26:49;12.63;;;3.30;;
21128;SDS011;10722;51.910;8.352;2022-08-04T01:29:50;18.85;;;3.80;;
21128;SDS011;10722;51.910;8.352;2022-08-04T01:35:56;15.70;;;3.30;;
21128;SDS011;10722;51.910;8.352;2022-08-04T01:38:49;15.40;;;3.35;;
21128;SDS011;10722;51.910;8.352;2022-08-04T01:41:34;15.55;;;3.40;;
21128;SDS011;10722;51.910;8.352;2022-08-04T01:44:19;17.77;;;3.60;;
21128;SDS011;10722;51.910;8.352;2022-08-04T01:47:07;13.88;;;3.28;;
21128;SDS011;10722;51.910;8.352;2022-08-04T01:49:53;16.98;;;3.67;;
21128;SDS011;10722;51.910;8.352;2022-08-04T01:52:40;15.43;;;3.88;;
21128;SDS011;10722;51.910;8.352;2022-08-04T01:55:31;16.08;;;3.85;;
21128;SDS011;10722;51.910;8.352;2022-08-04T01:58:38;17.40;;;3.92;;
21128;SDS011;10722;51.910;8.352;2022-08-04T02:01:24;14.20;;;3.60;;
21128;SDS011;10722;51.910;8.352;2022-08-04T02:04:20;16.77;;;3.65;;
21128;SDS011;10722;51.910;8.352;2022-08-04T02:10:06;17.58;;;3.47;;
21128;SDS011;10722;51.910;8.352;2022-08-04T02:22:39;13.35;;;3.38;;
21128;SDS011;10722;51.910;8.352;2022-08-04T02:25:45;13.25;;;3.20;;
21128;SDS011;10722;51.910;8.352;2022-08-04T02:28:34;16.50;;;3.70;;
21128;SDS011;10722;51.910;8.352;2022-08-04T02:34:27;13.68;;;3.60;;
21128;SDS011;10722;51.910;8.352;2022-08-04T02:37:16;16.30;;;4.03;;
21128;SDS011;10722;51.910;8.352;2022-08-04T02:40:03;13.15;;;3.65;;
21128;SDS011;10722;51.910;8.352;2022-08-04T02:42:50;14.30;;;3.42;;
21128;SDS011;10722;51.910;8.352;2022-08-04T02:45:41;15.65;;;4.13;;
21128;SDS011;10722;51.910;8.352;2022-08-04T02:48:29;15.32;;;3.92;;
21128;SDS011;10722;51.910;8.352;2022-08-04T02:51:28;16.48;;;4.32;;
21128;SDS011;10722;51.910;8.352;2022-08-04T02:54:27;13.05;;;3.78;;
21128;SDS011;10722;51.910;8.352;2022-08-04T02:57:18;16.02;;;3.85;;
21128;SDS011;10722;51.910;8.352;2022-08-04T03:24:29;14.02;;;3.97;;
21128;SDS011;10722;51.910;8.352;2022-08-04T03:37:02;11.75;;;3.63;;
21128;SDS011;10722;51.910;8.352;2022-08-04T03:50:01;11.77;;;3.35;;
21128;SDS011;10722;51.910;8.352;2022-08-04T03:59:32;13.68;;;3.80;;
21128;SDS011;10722;51.910;8.352;2022-08-04T04:03:10;13.77;;;3.78;;
21128;SDS011;10722;51.910;8.352;2022-08-04T04:16:35;17.75;;;4.68;;
21128;SDS011;10722;51.910;8.352;2022-08-04T04:41:30;12.60;;;3.83;;
21128;SDS011;10722;51.910;8.352;2022-08-04T04:44:42;17.70;;;3.80;;
21128;SDS011;10722;51.910;8.352;2022-08-04T04:47:41;13.18;;;3.95;;
21128;SDS011;10722;51.910;8.352;2022-08-04T04:53:55;11.93;;;4.05;;
21128;SDS011;10722;51.910;8.352;2022-08-04T04:57:04;18.10;;;4.68;;
21128;SDS011;10722;51.910;8.352;2022-08-04T04:59:56;16.38;;;4.97;;
21128;SDS011;10722;51.910;8.352;2022-08-04T05:15:42;15.65;;;4.55;;
21128;SDS011;10722;51.910;8.352;2022-08-04T05:18:31;16.35;;;5.07;;
21128;SDS011;10722;51.910;8.352;2022-08-04T05:24:26;18.20;;;5.03;;
21128;SDS011;10722;51.910;8.352;2022-08-04T05:27:19;16.50;;;4.65;;
21128;SDS011;10722;51.910;8.352;2022-08-04T05:30:12;20.02;;;4.57;;
21128;SDS011;10722;51.910;8.352;2022-08-04T05:32:59;15.88;;;4.50;;
21128;SDS011;10722;51.910;8.352;2022-08-04T05:35:48;18.45;;;4.85;;
21128;SDS011;10722;51.910;8.352;2022-08-04T05:38:59;18.52;;;4.78;;
21128;SDS011;10722;51.910;8.352;2022-08-04T05:41:47;17.90;;;4.95;;
21128;SDS011;10722;51.910;8.352;2022-08-04T05:44:42;14.85;;;4.82;;
21128;SDS011;10722;51.910;8.352;2022-08-04T05:47:34;16.05;;;4.90;;
21128;SDS011;10722;51.910;8.352;2022-08-04T05:50:20;16.20;;;4.88;;
21128;SDS011;10722;51.910;8.352;2022-08-04T05:53:08;13.68;;;4.70;;
21128;SDS011;10722;51.910;8.352;2022-08-04T05:55:54;13.05;;;4.38;;
21128;SDS011;10722;51.910;8.352;2022-08-04T05:58:44;24.23;;;11.73;;
21128;SDS011;10722;51.910;8.352;2022-08-04T06:01:30;21.23;;;8.15;;
21128;SDS011;10722;51.910;8.352;2022-08-04T06:04:38;16.65;;;6.40;;
21128;SDS011;10722;51.910;8.352;2022-08-04T06:07:25;18.13;;;5.18;;
21128;SDS011;10722;51.910;8.352;2022-08-04T06:10:10;14.93;;;4.78;;
21128;SDS011;10722;51.910;8.352;2022-08-04T06:12:57;28.95;;;18.38;;
21128;SDS011;10722;51.910;8.352;2022-08-04T06:15:46;36.33;;;23.70;;
21128;SDS011;10722;51.910;8.352;2022-08-04T06:18:34;14.23;;;4.80;;
21128;SDS011;10722;51.910;8.352;2022-08-04T06:21:44;13.98;;;4.72;;
21128;SDS011;10722;51.910;8.352;2022-08-04T06:24:32;13.32;;;4.15;;
21128;SDS011;10722;51.910;8.352;2022-08-04T06:27:22;13.65;;;4.70;;
21128;SDS011;10722;51.910;8.352;2022-08-04T06:30:08;17.35;;;4.75;;
21128;SDS011;10722;51.910;8.352;2022-08-04T06:32:54;17.65;;;5.00;;
21128;SDS011;10722;51.910;8.352;2022-08-04T06:35:55;14.57;;;4.82;;
21128;SDS011;10722;51.910;8.352;2022-08-04T06:38:41;13.38;;;4.78;;
21128;SDS011;10722;51.910;8.352;2022-08-04T06:41:28;16.50;;;4.20;;
21128;SDS011;10722;51.910;8.352;2022-08-04T06:44:14;14.23;;;4.07;;
21128;SDS011;10722;51.910;8.352;2022-08-04T06:46:59;14.43;;;4.50;;
21128;SDS011;10722;51.910;8.352;2022-08-04T06:49:49;14.35;;;4.00;;
21128;SDS011;10722;51.910;8.352;2022-08-04T06:52:56;14.18;;;4.35;;
21128;SDS011;10722;51.910;8.352;2022-08-04T06:55:42;12.80;;;3.90;;
21128;SDS011;10722;51.910;8.352;2022-08-04T06:58:29;12.30;;;3.90;;
21128;SDS011;10722;51.910;8.352;2022-08-04T07:01:16;14.02;;;3.65;;
21128;SDS011;10722;51.910;8.352;2022-08-04T07:04:04;13.10;;;3.75;;
21128;SDS011;10722;51.910;8.352;2022-08-04T07:06:49;18.63;;;6.43;;
21128;SDS011;10722;51.910;8.352;2022-08-04T07:09:35;12.80;;;3.63;;
21128;SDS011;10722;51.910;8.352;2022-08-04T07:12:21;13.07;;;3.67;;
21128;SDS011;10722;51.910;8.352;2022-08-04T07:15:08;10.80;;;3.63;;
21128;SDS011;10722;51.910;8.352;2022-08-04T07:17:58;11.85;;;3.40;;
21128;SDS011;10722;51.910;8.352;2022-08-04T07:20:44;12.73;;;3.70;;
21128;SDS011;10722;51.910;8.352;2022-08-04T07:23:30;9.43;;;3.10;;
21128;SDS011;10722;51.910;8.352;2022-08-04T07:26:15;11.05;;;3.10;;
21128;SDS011;10722;51.910;8.352;2022-08-04T07:29:00;9.35;;;3.28;;
21128;SDS011;10722;51.910;8.352;2022-08-04T07:31:46;9.63;;;2.95;;
21128;SDS011;10722;51.910;8.352;2022-08-04T07:34:33;8.80;;;2.85;;
21128;SDS011;10722;51.910;8.352;2022-08-04T07:37:22;10.02;;;2.95;;
21128;SDS011;10722;51.910;8.352;2022-08-04T07:40:23;14.27;;;3.30;;
21128;SDS011;10722;51.910;8.352;2022-08-04T07:43:08;8.80;;;2.60;;
21128;SDS011;10722;51.910;8.352;2022-08-04T07:45:53;10.23;;;3.00;;
21128;SDS011;10722;51.910;8.352;2022-08-04T07:48:39;11.35;;;2.92;;
21128;SDS011;10722;51.910;8.352;2022-08-04T07:51:24;11.98;;;3.33;;
21128;SDS011;10722;51.910;8.352;2022-08-04T07:54:10;7.88;;;2.67;;
21128;SDS011;10722;51.910;8.352;2022-08-04T07:56:56;11.65;;;2.80;;
21128;SDS011;10722;51.910;8.352;2022-08-04T07:59:41;11.05;;;2.85;;
21128;SDS011;10722;51.910;8.352;2022-08-04T08:02:33;10.93;;;3.00;;
21128;SDS011;10722;51.910;8.352;2022-08-04T08:05:20;6.82;;;2.50;;
21128;SDS011;10722;51.910;8.352;2022-08-04T08:08:05;10.93;;;2.75;;
21128;SDS011;10722;51.910;8.352;2022-08-04T08:10:51;9.80;;;2.92;;
21128;SDS011;10722;51.910;8.352;2022-08-04T08:13:36;8.82;;;2.65;;
21128;SDS011;10722;51.910;8.352;2022-08-04T08:16:22;11.10;;;2.50;;
21128;SDS011;10722;51.910;8.352;2022-08-04T08:19:09;7.55;;;2.58;;
21128;SDS011;10722;51.910;8.352;2022-08-04T08:21:54;8.50;;;2.28;;
21128;SDS011;10722;51.910;8.352;2022-08-04T08:24:44;8.50;;;2.35;;
21128;SDS011;10722;51.910;8.352;2022-08-04T08:27:29;13.27;;;2.65;;
21128;SDS011;10722;51.910;8.352;2022-08-04T08:30:15;9.05;;;2.60;;
21128;SDS011;10722;51.910;8.352;2022-08-04T08:33:01;8.43;;;2.38;;
21128;SDS011;10722;51.910;8.352;2022-08-04T08:52:19;6.60;;;2.60;;
21128;SDS011;10722;51.910;8.352;2022-08-04T09:00:46;12.75;;;2.70;;
21128;SDS011;10722;51.910;8.352;2022-08-04T09:10:03;7.85;;;2.50;;
21128;SDS011;10722;51.910;8.352;2022-08-04T09:13:08;9.18;;;2.58;;
21128;SDS011;10722;51.910;8.352;2022-08-04T09:16:16;9.55;;;2.42;;
21128;SDS011;10722;51.910;8.352;2022-08-04T09:19:07;8.63;;;2.38;;
21128;SDS011;10722;51.910;8.352;2022-08-04T09:26:01;9.30;;;2.30;;
21128;SDS011;10722;51.910;8.352;2022-08-04T09:28:53;8.55;;;2.40;;
21128;SDS011;10722;51.910;8.352;2022-08-04T09:31:58;7.05;;;2.35;;
21128;SDS011;10722;51.910;8.352;2022-08-04T09:34:59;13.05;;;2.25;;
21128;SDS011;10722;51.910;8.352;2022-08-04T09:47:25;7.50;;;1.95;;
21128;SDS011;10722;51.910;8.352;2022-08-04T09:53:37;8.65;;;2.10;;
21128;SDS011;10722;51.910;8.352;2022-08-04T10:00:17;8.63;;;2.00;;
21128;SDS011;10722;51.910;8.352;2022-08-04T10:03:22;5.80;;;2.10;;
21128;SDS011;10722;51.910;8.352;2022-08-04T10:09:24;6.00;;;1.90;;
21128;SDS011;10722;51.910;8.352;2022-08-04T10:22:10;10.40;;;2.50;;
21128;SDS011;10722;51.910;8.352;2022-08-04T10:25:21;7.53;;;2.03;;
21128;SDS011;10722;51.910;8.352;2022-08-04T10:28:37;9.23;;;2.00;;
21128;SDS011;10722;51.910;8.352;2022-08-04T10:31:32;6.15;;;1.60;;
21128;SDS011;10722;51.910;8.352;2022-08-04T10:34:25;8.65;;;1.83;;
21128;SDS011;10722;51.910;8.352;2022-08-04T10:40:00;6.20;;;1.92;;
21128;SDS011;10722;51.910;8.352;2022-08-04T10:42:56;8.70;;;2.00;;
21128;SDS011;10722;51.910;8.352;2022-08-04T10:49:07;7.07;;;1.85;;
21128;SDS011;10722;51.910;8.352;2022-08-04T10:52:10;5.63;;;1.90;;
21128;SDS011;10722;51.910;8.352;2022-08-04T10:58:04;7.03;;;1.70;;
21128;SDS011;10722;51.910;8.352;2022-08-04T11:00:51;10.38;;;3.55;;
21128;SDS011;10722;51.910;8.352;2022-08-04T11:03:48;10.43;;;1.80;;
21128;SDS011;10722;51.910;8.352;2022-08-04T11:06:40;13.60;;;1.90;;
21128;SDS011;10722;51.910;8.352;2022-08-04T11:09:27;8.48;;;2.00;;
21128;SDS011;10722;51.910;8.352;2022-08-04T11:12:15;5.93;;;1.90;;
21128;SDS011;10722;51.910;8.352;2022-08-04T11:15:05;7.65;;;2.00;;
21128;SDS011;10722;51.910;8.352;2022-08-04T11:17:56;9.43;;;2.20;;
21128;SDS011;10722;51.910;8.352;2022-08-04T11:20:55;6.80;;;2.00;;
21128;SDS011;10722;51.910;8.352;2022-08-04T11:24:15;10.45;;;1.90;;
21128;SDS011;10722;51.910;8.352;2022-08-04T11:27:14;7.93;;;2.00;;
21128;SDS011;10722;51.910;8.352;2022-08-04T11:30:22;9.30;;;2.10;;
21128;SDS011;10722;51.910;8.352;2022-08-04T11:36:21;9.55;;;2.15;;
21128;SDS011;10722;51.910;8.352;2022-08-04T11:39:20;11.68;;;1.90;;
21128;SDS011;10722;51.910;8.352;2022-08-04T11:45:06;6.75;;;1.70;;
21128;SDS011;10722;51.910;8.352;2022-08-04T11:48:10;8.15;;;1.90;;
21128;SDS011;10722;51.910;8.352;2022-08-04T11:51:00;11.82;;;1.90;;
21128;SDS011;10722;51.910;8.352;2022-08-04T11:53:50;7.05;;;1.77;;
21128;SDS011;10722;51.910;8.352;2022-08-04T11:56:35;8.25;;;1.80;;
21128;SDS011;10722;51.910;8.352;2022-08-04T11:59:22;9.45;;;1.85;;
21128;SDS011;10722;51.910;8.352;2022-08-04T12:05:20;5.93;;;1.70;;
21128;SDS011;10722;51.910;8.352;2022-08-04T12:21:04;7.15;;;1.70;;
21128;SDS011;10722;51.910;8.352;2022-08-04T12:24:07;7.20;;;1.70;;
21128;SDS011;10722;51.910;8.352;2022-08-04T12:27:10;9.35;;;1.70;;
21128;SDS011;10722;51.910;8.352;2022-08-04T12:30:00;8.48;;;1.65;;
21128;SDS011;10722;51.910;8.352;2022-08-04T12:33:09;7.15;;;1.67;;
21128;SDS011;10722;51.910;8.352;2022-08-04T12:36:12;8.65;;;1.50;;
21128;SDS011;10722;51.910;8.352;2022-08-04T12:39:19;7.68;;;1.40;;
21128;SDS011;10722;51.910;8.352;2022-08-04T12:42:14;8.15;;;1.50;;
21128;SDS011;10722;51.910;8.352;2022-08-04T12:45:06;4.80;;;1.48;;
21128;SDS011;10722;51.910;8.352;2022-08-04T12:47:55;6.15;;;1.30;;
21128;SDS011;10722;51.910;8.352;2022-08-04T12:50:42;5.60;;;1.50;;
21128;SDS011;10722;51.910;8.352;2022-08-04T12:53:35;4.28;;;1.38;;
21128;SDS011;10722;51.910;8.352;2022-08-04T12:56:35;7.95;;;1.30;;
21128;SDS011;10722;51.910;8.352;2022-08-04T12:59:22;4.68;;;1.45;;
21128;SDS011;10722;51.910;8.352;2022-08-04T13:02:11;5.97;;;1.50;;
21128;SDS011;10722;51.910;8.352;2022-08-04T13:05:02;8.35;;;1.70;;
21128;SDS011;10722;51.910;8.352;2022-08-04T13:07:49;7.25;;;1.65;;
21128;SDS011;10722;51.910;8.352;2022-08-04T13:10:41;6.85;;;1.90;;
21128;SDS011;10722;51.910;8.352;2022-08-04T13:13:30;8.40;;;1.85;;
21128;SDS011;10722;51.910;8.352;2022-08-04T13:16:17;6.43;;;2.20;;
21128;SDS011;10722;51.910;8.352;2022-08-04T13:19:07;7.05;;;2.20;;
21128;SDS011;10722;51.910;8.352;2022-08-04T13:21:54;10.05;;;2.28;;
21128;SDS011;10722;51.910;8.352;2022-08-04T13:24:48;9.85;;;2.05;;
21128;SDS011;10722;51.910;8.352;2022-08-04T13:27:55;10.90;;;3.10;;
21128;SDS011;10722;51.910;8.352;2022-08-04T13:30:44;16.67;;;2.90;;
21128;SDS011;10722;51.910;8.352;2022-08-04T13:33:33;8.40;;;2.60;;
21128;SDS011;10722;51.910;8.352;2022-08-04T13:36:24;10.05;;;2.30;;
21128;SDS011;10722;51.910;8.352;2022-08-04T13:39:17;10.00;;;2.20;;
21128;SDS011;10722;51.910;8.352;2022-08-04T13:42:09;8.45;;;2.10;;
21128;SDS011;10722;51.910;8.352;2022-08-04T13:44:57;8.00;;;2.22;;
21128;SDS011;10722;51.910;8.352;2022-08-04T13:47:44;9.18;;;2.28;;
21128;SDS011;10722;51.910;8.352;2022-08-04T13:50:33;12.65;;;2.25;;
21128;SDS011;10722;51.910;8.352;2022-08-04T13:53:21;13.48;;;2.42;;
21128;SDS011;10722;51.910;8.352;2022-08-04T13:56:06;9.27;;;2.13;;
21128;SDS011;10722;51.910;8.352;2022-08-04T13:58:55;10.02;;;2.08;;
21128;SDS011;10722;51.910;8.352;2022-08-04T14:01:46;11.05;;;2.50;;
21128;SDS011;10722;51.910;8.352;2022-08-04T14:04:42;10.63;;;2.65;;
21128;SDS011;10722;51.910;8.352;2022-08-04T14:10:58;10.30;;;2.40;;
21128;SDS011;10722;51.910;8.352;2022-08-04T14:13:44;8.80;;;2.50;;
21128;SDS011;10722;51.910;8.352;2022-08-04T14:16:30;11.40;;;2.70;;
21128;SDS011;10722;51.910;8.352;2022-08-04T14:23:08;10.52;;;2.75;;
21128;SDS011;10722;51.910;8.352;2022-08-04T14:25:54;19.15;;;2.95;;
21128;SDS011;10722;51.910;8.352;2022-08-04T14:28:39;13.35;;;2.60;;
21128;SDS011;10722;51.910;8.352;2022-08-04T14:31:47;17.98;;;3.05;;
21128;SDS011;10722;51.910;8.352;2022-08-04T14:34:42;16.02;;;2.83;;
21128;SDS011;10722;51.910;8.352;2022-08-04T14:37:30;17.27;;;2.72;;
21128;SDS011;10722;51.910;8.352;2022-08-04T14:40:36;13.98;;;2.97;;
21128;SDS011;10722;51.910;8.352;2022-08-04T14:43:24;13.13;;;2.95;;
21128;SDS011;10722;51.910;8.352;2022-08-04T14:46:12;14.98;;;2.90;;
21128;SDS011;10722;51.910;8.352;2022-08-04T14:49:17;13.85;;;3.20;;
21128;SDS011;10722;51.910;8.352;2022-08-04T14:52:02;16.17;;;3.35;;
21128;SDS011;10722;51.910;8.352;2022-08-04T14:54:48;12.30;;;2.83;;
21128;SDS011;10722;51.910;8.352;2022-08-04T14:57:35;14.00;;;3.22;;
21128;SDS011;10722;51.910;8.352;2022-08-04T15:00:42;13.73;;;2.97;;
21128;SDS011;10722;51.910;8.352;2022-08-04T15:03:28;19.20;;;3.70;;
21128;SDS011;10722;51.910;8.352;2022-08-04T15:06:14;12.30;;;3.20;;
21128;SDS011;10722;51.910;8.352;2022-08-04T15:09:08;13.25;;;3.47;;
21128;SDS011;10722;51.910;8.352;2022-08-04T15:11:54;14.35;;;3.47;;
21128;SDS011;10722;51.910;8.352;2022-08-04T15:14:40;13.30;;;3.20;;
21128;SDS011;10722;51.910;8.352;2022-08-04T15:17:25;11.73;;;3.08;;
21128;SDS011;10722;51.910;8.352;2022-08-04T15:20:14;14.35;;;2.90;;
21128;SDS011;10722;51.910;8.352;2022-08-04T15:23:01;13.93;;;3.05;;
21128;SDS011;10722;51.910;8.352;2022-08-04T15:25:53;16.40;;;3.53;;
21128;SDS011;10722;51.910;8.352;2022-08-04T15:28:45;14.55;;;3.35;;
21128;SDS011;10722;51.910;8.352;2022-08-04T15:31:36;14.40;;;3.40;;
21128;SDS011;10722;51.910;8.352;2022-08-04T15:34:47;13.63;;;3.20;;
21128;SDS011;10722;51.910;8.352;2022-08-04T15:49:28;16.75;;;3.03;;
21128;SDS011;10722;51.910;8.352;2022-08-04T15:52:14;15.98;;;3.60;;
21128;SDS011;10722;51.910;8.352;2022-08-04T15:58:18;13.57;;;3.20;;
21128;SDS011;10722;51.910;8.352;2022-08-04T16:03:50;15.07;;;3.20;;
21128;SDS011;10722;51.910;8.352;2022-08-04T16:06:45;13.63;;;3.30;;
21128;SDS011;10722;51.910;8.352;2022-08-04T16:09:30;12.27;;;3.10;;
21128;SDS011;10722;51.910;8.352;2022-08-04T16:15:55;15.05;;;3.25;;
21128;SDS011;10722;51.910;8.352;2022-08-04T16:18:47;13.68;;;3.33;;
21128;SDS011;10722;51.910;8.352;2022-08-04T16:21:33;13.93;;;3.20;;
21128;SDS011;10722;51.910;8.352;2022-08-04T16:27:34;15.38;;;3.03;;
21128;SDS011;10722;51.910;8.352;2022-08-04T16:30:26;13.00;;;3.03;;
21128;SDS011;10722;51.910;8.352;2022-08-04T16:33:11;16.88;;;3.28;;
21128;SDS011;10722;51.910;8.352;2022-08-04T16:35:57;14.65;;;3.38;;
21128;SDS011;10722;51.910;8.352;2022-08-04T16:39:01;12.82;;;3.33;;
21128;SDS011;10722;51.910;8.352;2022-08-04T16:41:48;13.05;;;3.00;;
21128;SDS011;10722;51.910;8.352;2022-08-04T16:44:34;14.63;;;3.28;;
21128;SDS011;10722;51.910;8.352;2022-08-04T16:50:31;14.60;;;3.58;;
21128;SDS011;10722;51.910;8.352;2022-08-04T16:53:18;13.40;;;3.50;;
21128;SDS011;10722;51.910;8.352;2022-08-04T16:56:28;12.80;;;3.72;;
21128;SDS011;10722;51.910;8.352;2022-08-04T16:59:18;15.82;;;3.65;;
21128;SDS011;10722;51.910;8.352;2022-08-04T17:02:03;19.25;;;3.42;;
21128;SDS011;10722;51.910;8.352;2022-08-04T17:04:51;15.07;;;3.05;;
21128;SDS011;10722;51.910;8.352;2022-08-04T17:07:52;12.05;;;3.28;;
21128;SDS011;10722;51.910;8.352;2022-08-04T17:11:00;14.38;;;3.00;;
21128;SDS011;10722;51.910;8.352;2022-08-04T17:13:45;14.65;;;3.13;;
21128;SDS011;10722;51.910;8.352;2022-08-04T17:16:49;11.68;;;2.80;;
21128;SDS011;10722;51.910;8.352;2022-08-04T17:19:35;13.30;;;2.83;;
21128;SDS011;10722;51.910;8.352;2022-08-04T17:22:21;12.77;;;3.20;;
21128;SDS011;10722;51.910;8.352;2022-08-04T17:25:07;13.68;;;3.00;;
21128;SDS011;10722;51.910;8.352;2022-08-04T17:28:00;15.60;;;3.35;;
21128;SDS011;10722;51.910;8.352;2022-08-04T17:31:04;15.20;;;3.08;;
21128;SDS011;10722;51.910;8.352;2022-08-04T17:33:53;14.52;;;3.22;;
21128;SDS011;10722;51.910;8.352;2022-08-04T17:36:41;15.85;;;3.22;;
21128;SDS011;10722;51.910;8.352;2022-08-04T17:39:27;14.90;;;3.30;;
21128;SDS011;10722;51.910;8.352;2022-08-04T17:42:28;12.18;;;3.08;;
21128;SDS011;10722;51.910;8.352;2022-08-04T17:45:17;12.38;;;3.45;;
21128;SDS011;10722;51.910;8.352;2022-08-04T17:48:22;13.95;;;3.20;;
21128;SDS011;10722;51.910;8.352;2022-08-04T17:51:12;12.95;;;3.45;;
21128;SDS011;10722;51.910;8.352;2022-08-04T17:54:01;11.50;;;3.20;;
21128;SDS011;10722;51.910;8.352;2022-08-04T17:56:49;17.20;;;3.50;;
21128;SDS011;10722;51.910;8.352;2022-08-04T17:59:40;17.27;;;3.30;;
21128;SDS011;10722;51.910;8.352;2022-08-04T18:02:50;17.10;;;3.50;;
21128;SDS011;10722;51.910;8.352;2022-08-04T18:05:37;15.70;;;3.55;;
21128;SDS011;10722;51.910;8.352;2022-08-04T18:08:42;14.15;;;4.13;;
21128;SDS011;10722;51.910;8.352;2022-08-04T18:11:34;21.75;;;4.10;;
21128;SDS011;10722;51.910;8.352;2022-08-04T18:14:27;18.10;;;4.25;;
21128;SDS011;10722;51.910;8.352;2022-08-04T18:17:34;21.20;;;4.18;;
21128;SDS011;10722;51.910;8.352;2022-08-04T18:20:42;11.98;;;3.58;;
21128;SDS011;10722;51.910;8.352;2022-08-04T18:23:33;13.35;;;3.47;;
21128;SDS011;10722;51.910;8.352;2022-08-04T18:26:34;13.70;;;3.50;;
21128;SDS011;10722;51.910;8.352;2022-08-04T18:29:19;10.07;;;3.17;;
21128;SDS011;10722;51.910;8.352;2022-08-04T18:32:16;11.38;;;3.35;;
21128;SDS011;10722;51.910;8.352;2022-08-04T18:35:04;11.95;;;3.38;;
21128;SDS011;10722;51.910;8.352;2022-08-04T18:37:53;10.98;;;3.00;;
21128;SDS011;10722;51.910;8.352;2022-08-04T18:40:51;8.27;;;2.80;;
21128;SDS011;10722;51.910;8.352;2022-08-04T18:43:39;12.98;;;3.28;;
21128;SDS011;10722;51.910;8.352;2022-08-04T18:46:25;11.00;;;2.83;;
21128;SDS011;10722;51.910;8.352;2022-08-04T18:49:11;11.07;;;3.08;;
21128;SDS011;10722;51.910;8.352;2022-08-04T18:52:16;9.00;;;2.78;;
21128;SDS011;10722;51.910;8.352;2022-08-04T18:55:08;9.45;;;2.90;;
21128;SDS011;10722;51.910;8.352;2022-08-04T18:57:55;10.40;;;2.80;;
21128;SDS011;10722;51.910;8.352;2022-08-04T19:00:45;7.80;;;3.03;;
21128;SDS011;10722;51.910;8.352;2022-08-04T19:03:32;8.90;;;2.88;;
21128;SDS011;10722;51.910;8.352;2022-08-04T19:06:20;9.75;;;3.03;;
21128;SDS011;10722;51.910;8.352;2022-08-04T19:09:11;8.15;;;2.90;;
21128;SDS011;10722;51.910;8.352;2022-08-04T19:12:05;10.60;;;3.20;;
21128;SDS011;10722;51.910;8.352;2022-08-04T19:14:51;13.20;;;2.70;;
21128;SDS011;10722;51.910;8.352;2022-08-04T19:17:43;8.10;;;2.90;;
21128;SDS011;10722;51.910;8.352;2022-08-04T19:20:41;9.63;;;3.15;;
21128;SDS011;10722;51.910;8.352;2022-08-04T19:23:26;8.55;;;2.90;;
21128;SDS011;10722;51.910;8.352;2022-08-04T19:26:32;11.77;;;3.10;;
21128;SDS011;10722;51.910;8.352;2022-08-04T19:29:19;13.98;;;5.00;;
21128;SDS011;10722;51.910;8.352;2022-08-04T19:32:05;9.82;;;2.85;;
21128;SDS011;10722;51.910;8.352;2022-08-04T19:34:59;11.30;;;3.42;;
21128;SDS011;10722;51.910;8.352;2022-08-04T19:37:44;12.73;;;4.28;;
21128;SDS011;10722;51.910;8.352;2022-08-04T19:40:45;19.00;;;8.50;;
21128;SDS011;10722;51.910;8.352;2022-08-04T19:43:36;14.48;;;5.80;;
21128;SDS011;10722;51.910;8.352;2022-08-04T19:46:28;10.68;;;3.20;;
21128;SDS011;10722;51.910;8.352;2022-08-04T19:49:13;12.75;;;3.08;;
21128;SDS011;10722;51.910;8.352;2022-08-04T19:52:18;8.27;;;2.50;;
21128;SDS011;10722;51.910;8.352;2022-08-04T19:55:20;7.82;;;2.70;;
21128;SDS011;10722;51.910;8.352;2022-08-04T19:58:22;7.85;;;2.60;;
21128;SDS011;10722;51.910;8.352;2022-08-04T20:01:11;8.27;;;2.95;;
21128;SDS011;10722;51.910;8.352;2022-08-04T20:04:17;9.15;;;2.85;;
21128;SDS011;10722;51.910;8.352;2022-08-04T20:07:02;12.27;;;3.00;;
21128;SDS011;10722;51.910;8.352;2022-08-04T20:09:48;11.95;;;2.90;;
21128;SDS011;10722;51.910;8.352;2022-08-04T20:12:53;7.40;;;2.72;;
21128;SDS011;10722;51.910;8.352;2022-08-04T20:15:40;7.68;;;2.70;;
21128;SDS011;10722;51.910;8.352;2022-08-04T20:18:39;10.88;;;3.00;;
21128;SDS011;10722;51.910;8.352;2022-08-04T20:21:44;10.35;;;2.90;;
21128;SDS011;10722;51.910;8.352;2022-08-04T20:24:39;11.93;;;3.38;;
21128;SDS011;10722;51.910;8.352;2022-08-04T20:27:44;12.23;;;2.90;;
21128;SDS011;10722;51.910;8.352;2022-08-04T20:30:44;8.90;;;3.00;;
21128;SDS011;10722;51.910;8.352;2022-08-04T20:33:29;13.70;;;3.03;;
21128;SDS011;10722;51.910;8.352;2022-08-04T20:36:17;9.35;;;2.83;;
21128;SDS011;10722;51.910;8.352;2022-08-04T20:39:03;11.57;;;3.10;;
21128;SDS011;10722;51.910;8.352;2022-08-04T20:41:53;11.00;;;3.42;;
21128;SDS011;10722;51.910;8.352;2022-08-04T20:44:38;10.55;;;3.20;;
21128;SDS011;10722;51.910;8.352;2022-08-04T20:47:30;11.93;;;2.90;;
21128;SDS011;10722;51.910;8.352;2022-08-04T20:50:19;12.65;;;3.38;;
21128;SDS011;10722;51.910;8.352;2022-08-04T20:53:14;12.85;;;3.00;;
21128;SDS011;10722;51.910;8.352;2022-08-04T20:56:01;11.15;;;3.00;;
21128;SDS011;10722;51.910;8.352;2022-08-04T20:58:46;10.43;;;2.92;;
21128;SDS011;10722;51.910;8.352;2022-08-04T21:01:32;10.25;;;3.13;;
21128;SDS011;10722;51.910;8.352;2022-08-04T21:04:18;12.82;;;3.13;;
21128;SDS011;10722;51.910;8.352;2022-08-04T21:07:12;11.35;;;3.38;;
21128;SDS011;10722;51.910;8.352;2022-08-04T21:10:17;9.85;;;3.03;;
21128;SDS011;10722;51.910;8.352;2022-08-04T21:13:05;9.90;;;3.10;;
21128;SDS011;10722;51.910;8.352;2022-08-04T21:15:52;11.63;;;3.05;;
21128;SDS011;10722;51.910;8.352;2022-08-04T21:18:43;10.05;;;2.92;;
21128;SDS011;10722;51.910;8.352;2022-08-04T21:21:29;12.45;;;3.20;;
21128;SDS011;10722;51.910;8.352;2022-08-04T21:24:20;12.93;;;3.78;;
21128;SDS011;10722;51.910;8.352;2022-08-04T21:27:10;13.10;;;3.80;;
21128;SDS011;10722;51.910;8.352;2022-08-04T21:29:56;11.88;;;3.90;;
21128;SDS011;10722;51.910;8.352;2022-08-04T21:32:44;14.65;;;4.50;;
21128;SDS011;10722;51.910;8.352;2022-08-04T21:35:30;16.17;;;4.35;;
21128;SDS011;10722;51.910;8.352;2022-08-04T21:38:23;12.98;;;4.60;;
21128;SDS011;10722;51.910;8.352;2022-08-04T21:41:12;14.77;;;4.03;;
21128;SDS011;10722;51.910;8.352;2022-08-04T21:44:08;14.27;;;3.80;;
21128;SDS011;10722;51.910;8.352;2022-08-04T21:46:54;11.02;;;3.42;;